METAR Data
IDs: Format: Raw Decoded Include TAF

Data at: 1632 UTC 19 Sep 2018

KDMW 191625Z AUTO 34007KT 10SM SCT026 26/16 A2999 RMK AO2
KDMW 191605Z AUTO 34006KT 10SM SCT028 26/17 A2998 RMK AO2
KDMW 191545Z AUTO 35006KT 10SM CLR 26/18 A2998 RMK AO2
KDMW 191525Z AUTO 36007KT 10SM CLR 25/17 A2999 RMK AO2
KDMW 191505Z AUTO 35007KT 10SM SCT022 25/18 A2999 RMK AO2
KDMW 191445Z AUTO 36008KT 10SM SCT020 25/18 A2998 RMK AO2 LTG DSNT SE
KDMW 191425Z AUTO 35004KT 10SM SCT022 24/18 A2998 RMK AO2 LTG DSNT SE
KDMW 191405Z AUTO 02005KT 10SM SCT017 SCT024 24/19 A2997 RMK AO2 LTG DSNT SE
KDMW 191345Z AUTO 36005KT 10SM SCT024 23/19 A2997 RMK AO2
KDMW 191325Z AUTO 35005KT 10SM CLR 23/19 A2997 RMK AO2
KDMW 191305Z AUTO 35004KT 10SM CLR 22/19 A2996 RMK AO2
KDMW 191245Z AUTO 34003KT 10SM CLR 22/19 A2996 RMK AO2
KDMW 191225Z AUTO 33004KT 10SM CLR 21/19 A2995 RMK AO2
KDMW 191205Z AUTO 33003KT 10SM CLR 21/19 A2995 RMK AO2
KDMW 191140Z AUTO 00000KT 10SM CLR 21/18 A2994 RMK AO2
KDMW 191125Z AUTO 00000KT 10SM CLR 21/18 A2993 RMK AO2
KDMW 191105Z AUTO 00000KT 10SM CLR 20/18 A2992 RMK AO2
KDMW 191045Z AUTO 00000KT 7SM CLR 20/18 A2991 RMK AO2
KDMW 191020Z AUTO 00000KT 10SM CLR 20/18 A2990 RMK AO2
KDMW 191005Z AUTO 00000KT 10SM CLR 20/18 A2990 RMK AO2
KDMW 190945Z AUTO 00000KT 10SM CLR 21/18 A2989 RMK AO2 LTG DSNT E AND S
KDMW 190925Z AUTO 33003KT 10SM CLR 21/19 A2990 RMK AO2
KDMW 190905Z AUTO 32003KT 10SM CLR 21/19 A2989 RMK AO2
KDMW 190845Z AUTO 00000KT 10SM CLR 21/19 A2989 RMK AO2
KDMW 190825Z AUTO 33003KT 10SM CLR 21/19 A2989 RMK AO2 LTG DSNT S
KDMW 190805Z AUTO 32004KT 10SM CLR 21/19 A2988 RMK AO2 LTG DSNT SE
KDMW 190745Z AUTO 33003KT 10SM CLR 21/19 A2988 RMK AO2
KDMW 190725Z AUTO 32003KT 10SM CLR 21/19 A2988 RMK AO2
KDMW 190705Z AUTO 32004KT 10SM CLR 21/19 A2988 RMK AO2
KDMW 190645Z AUTO 32004KT 10SM CLR 21/19 A2989 RMK AO2 LTG DSNT S
KDMW 190625Z AUTO 33003KT 10SM CLR 21/19 A2988 RMK AO2
KDMW 190605Z AUTO 00000KT 10SM CLR 21/19 A2988 RMK AO2
KDMW 190545Z AUTO 00000KT 10SM CLR 21/19 A2988 RMK AO2
KDMW 190525Z AUTO 00000KT 10SM CLR 21/18 A2988 RMK AO2 LTG DSNT SE
KDMW 190505Z AUTO 00000KT 10SM CLR 22/18 A2988 RMK AO2
KDMW 190445Z AUTO 32004KT 10SM CLR 22/18 A2987 RMK AO2
KDMW 190425Z AUTO 32003KT 10SM CLR 22/18 A2988 RMK AO2
KDMW 190405Z AUTO 33003KT 10SM CLR 22/18 A2988 RMK AO2
KDMW 190345Z AUTO 00000KT 10SM CLR 22/18 A2987 RMK AO2
KDMW 190325Z AUTO 00000KT 10SM CLR 22/18 A2987 RMK AO2
KDMW 190305Z AUTO 31003KT 10SM CLR 23/18 A2988 RMK AO2
KDMW 190245Z AUTO 32004KT 10SM CLR 23/18 A2988 RMK AO2 LTG DSNT S
KDMW 190225Z AUTO 32005KT 10SM CLR 23/18 A2988 RMK AO2
KDMW 190205Z AUTO 32003KT 10SM CLR 23/18 A2987 RMK AO2
KDMW 190145Z AUTO 33003KT 10SM CLR 23/18 A2987 RMK AO2 LTG DSNT SE
KDMW 190125Z AUTO 00000KT 10SM CLR 23/18 A2987 RMK AO2
KDMW 190105Z AUTO 00000KT 10SM CLR 24/18 A2987 RMK AO2
KDMW 190045Z AUTO 00000KT 10SM CLR 24/18 A2987 RMK AO2
KDMW 190025Z AUTO 00000KT 10SM CLR 24/18 A2986 RMK AO2
KDMW 190005Z AUTO 32003KT 10SM CLR 24/18 A2986 RMK AO2
KDMW 182345Z AUTO 00000KT 10SM CLR 24/18 A2985 RMK AO2
KDMW 182325Z AUTO 32004KT 10SM CLR 25/18 A2984 RMK AO2
KDMW 182305Z AUTO 31004KT 10SM CLR 26/18 A2984 RMK AO2
KDMW 182245Z AUTO 33003KT 10SM CLR 27/17 A2983 RMK AO2 LTG DSNT SE
KDMW 182225Z AUTO 34003KT 10SM CLR 28/17 A2983 RMK AO2 LTG DSNT SE
KDMW 182205Z AUTO 34005KT 10SM CLR 28/17 A2982 RMK AO2 LTG DSNT E
KDMW 182145Z AUTO 35007KT 10SM CLR 29/16 A2982 RMK AO2 LTG DSNT E
KDMW 182125Z AUTO 34005KT 10SM CLR 29/17 A2982 RMK AO2
KDMW 182105Z AUTO 35012G18KT 10SM CLR 28/17 A2981 RMK AO2
KDMW 182045Z AUTO 35012G18KT 10SM CLR 29/16 A2981 RMK AO2
KDMW 182025Z AUTO 36009G15KT 10SM CLR 28/18 A2981 RMK AO2 LTG DSNT SE
KDMW 182005Z AUTO 35007KT 10SM CLR 28/18 A2980 RMK AO2 LTG DSNT SE
KDMW 181945Z AUTO 36010G14KT 10SM SCT027 27/18 A2980 RMK AO2 LTG DSNT SE
KDMW 181925Z AUTO 36007KT 330V030 10SM SCT027 27/18 A2980 RMK AO2 LTG DSNT SE
KDMW 181905Z AUTO 36008G17KT 10SM SCT029 27/18 A2981 RMK AO2
KDMW 181845Z AUTO 35011G16KT 10SM SCT029 BKN075 27/18 A2982 RMK AO2 LTG DSNT SE
KDMW 181825Z AUTO 36009KT 10SM SCT027 BKN075 25/18 A2981 RMK AO2 LTG DSNT S
KDMW 181805Z AUTO 36007G17KT 330V030 10SM BKN025 BKN085 25/18 A2982 RMK AO2 LTG DSNT SE
KDMW 181745Z AUTO 36007KT 10SM VCTS BKN025 BKN045 BKN085 26/18 A2981 RMK AO2 LTG DSNT SE
KDMW 181725Z AUTO 36004KT 10SM SCT015 SCT038 BKN046 24/19 A2982 RMK AO2 LTG DSNT E
KDMW 181705Z AUTO 36009KT 10SM BKN011 BKN018 OVC036 23/19 A2982 RMK AO2 LTG DSNT E
KDMW 181645Z AUTO 35008KT 10SM OVC010 23/20 A2982 RMK AO2 LTG DSNT E
KDMW 181625Z AUTO 34006KT 10SM OVC010 23/20 A2982 RMK AO2 LTG DSNT E AND SE
KDMW 181605Z AUTO 36004KT 10SM VCTS BKN010 OVC022 23/20 A2982 RMK AO2 LTG DSNT NE THRU SE
KDMW 181545Z AUTO 36009KT 10SM VCTS SCT008 OVC020 23/20 A2982 RMK AO2 LTG DSNT NE
KDMW 181525Z AUTO 35006KT 5SM BR OVC016 22/20 A2982 RMK AO2
KDMW 181505Z AUTO 34008G14KT 10SM VCTS SCT009 OVC014 23/20 A2982 RMK AO2 LTG DSNT SE
KDMW 181445Z AUTO 31005KT 10SM OVC011 25/22 A2981 RMK AO2
KDMW 181425Z AUTO 30003KT 10SM SCT008 OVC014 24/23 A2981 RMK AO2
KDMW 181405Z AUTO 29003KT 7SM SCT005 OVC014 24/22 A2981 RMK AO2
KDMW 181345Z AUTO 28004KT 3SM BR OVC003 24/22 A2981 RMK AO2
KDMW 181325Z AUTO 25004KT 2SM BR OVC003 23/22 A2981 RMK AO2
KDMW 181305Z AUTO 26003KT 1 3/4SM BR OVC003 23/22 A2980 RMK AO2
KDMW 181245Z AUTO 23004KT 3SM BR OVC003 23/22 A2981 RMK AO2
KDMW 181225Z AUTO 21003KT 3SM BR OVC003 23/22 A2981 RMK AO2
KDMW 181205Z AUTO 20003KT 5SM BR OVC003 23/22 A2981 RMK AO2
KDMW 181145Z AUTO 21006KT 7SM OVC003 23/22 A2981 RMK AO2
KDMW 181125Z AUTO 20005KT 7SM OVC005 23/22 A2981 RMK AO2
KDMW 181105Z AUTO 21005KT 7SM OVC005 23/22 A2981 RMK AO2
KDMW 181045Z AUTO 20007KT 10SM OVC005 23/22 A2981 RMK AO2
KDMW 181025Z AUTO 20006KT 10SM OVC005 23/22 A2981 RMK AO2 LTG DSNT S
KDMW 181005Z AUTO 20006KT 10SM OVC005 23/22 A2981 RMK AO2
KDMW 180945Z AUTO 19004KT 10SM OVC005 23/22 A2981 RMK AO2 P0001
KDMW 180925Z AUTO 20006KT 10SM OVC005 23/22 A2981 RMK AO2 LTG DSNT N P0001
KDMW 180905Z AUTO 22003KT 10SM OVC007 23/22 A2981 RMK AO2 LTG DSNT NE
KDMW 180845Z AUTO 20006KT 10SM OVC007 23/22 A2980 RMK AO2 LTG DSNT E
KDMW 180825Z AUTO 19006KT 10SM OVC009 23/22 A2981 RMK AO2 LTG DSNT E
KDMW 180805Z AUTO 20005KT 10SM OVC009 24/22 A2982 RMK AO2 LTG DSNT NE AND E
KDMW 180745Z AUTO 20006KT 10SM BKN009 BKN014 OVC080 24/22 A2983 RMK AO2 LTG DSNT E
KDMW 180725Z AUTO 18005KT 10SM VCTS SCT009 OVC070 24/22 A2982 RMK AO2 LTG DSNT E
KDMW 180705Z AUTO 19003KT 10SM VCTS SCT008 BKN015 OVC090 24/22 A2983 RMK AO2 LTG DSNT E AND SE
KDMW 180645Z AUTO 19004KT 10SM TS SCT008 BKN013 OVC050 24/22 A2983 RMK AO2 LTG DSNT SE
KDMW 180625Z AUTO 00000KT 10SM VCTS BKN008 BKN015 24/22 A2984 RMK AO2 LTG DSNT E AND SE
KDMW 180600Z AUTO 00000KT 10SM VCTS SCT006 BKN012 BKN018 23/22 A2983 RMK AO2 LTG DSNT E THRU S
KDMW 180545Z AUTO 19004KT 10SM TS SCT006 SCT011 BKN015 23/22 A2984 RMK AO2 LTG DSNT NE THRU S
KDMW 180525Z AUTO 19006KT 10SM VCTS SCT016 SCT085 23/22 A2984 RMK AO2 LTG DSNT NE THRU S
KDMW 180505Z AUTO 21006KT 10SM VCTS SCT036 SCT070 BKN085 24/22 A2984 RMK AO2 LTG DSNT E THRU S
KDMW 180445Z AUTO 17006KT 7SM -TSRA SCT010 BKN038 OVC080 24/22 A2986 RMK AO2 LTG DSNT ALQDS P0029